createdAt,value
2018-06-09T00:00:50.639Z,79.00
2018-06-09T00:01:50.627Z,78.50
2018-06-09T00:02:50.628Z,78.80
2018-06-09T00:03:50.635Z,82.20
2018-06-09T00:04:50.635Z,83.50
2018-06-09T00:05:50.630Z,80.30
2018-06-09T00:06:50.630Z,80.00
2018-06-09T00:07:50.631Z,81.80
2018-06-09T00:08:50.631Z,79.30
2018-06-09T00:09:50.636Z,75.20
2018-06-09T00:10:50.637Z,77.40
2018-06-09T00:11:50.638Z,79.80
2018-06-09T00:12:50.638Z,77.40
2018-06-09T00:13:50.635Z,78.70
2018-06-09T00:14:50.636Z,80.30
2018-06-09T00:15:50.637Z,78.50
2018-06-09T00:16:50.636Z,80.00
2018-06-09T00:17:50.641Z,78.80
2018-06-09T00:18:50.644Z,80.20
2018-06-09T00:19:50.640Z,79.30
2018-06-09T00:20:50.639Z,82.40
2018-06-09T00:21:50.645Z,81.50
2018-06-09T00:22:50.648Z,79.20
2018-06-09T00:23:50.645Z,78.30
2018-06-09T00:24:50.647Z,78.90
2018-06-09T00:25:50.642Z,78.20
2018-06-09T00:26:50.643Z,79.00
2018-06-09T00:27:50.643Z,77.40
2018-06-09T00:28:50.645Z,79.20
2018-06-09T00:29:50.649Z,77.40
2018-06-09T00:30:50.653Z,78.00
2018-06-09T00:31:50.649Z,78.70
2018-06-09T00:32:50.650Z,77.00
2018-06-09T00:33:50.649Z,76.00
2018-06-09T00:34:50.647Z,78.90
2018-06-09T00:35:50.678Z,76.90
2018-06-09T00:36:50.653Z,77.00
2018-06-09T00:37:50.651Z,76.80
2018-06-09T00:38:50.651Z,78.30
2018-06-09T00:39:50.650Z,79.50
2018-06-09T00:40:50.650Z,75.20
2018-06-09T00:41:50.657Z,76.90
2018-06-09T00:42:50.656Z,75.20
2018-06-09T00:43:50.659Z,77.30
2018-06-09T00:44:50.658Z,79.10
2018-06-09T00:45:50.654Z,79.80
2018-06-09T00:46:50.654Z,80.90
2018-06-09T00:47:50.656Z,76.70
2018-06-09T00:48:50.655Z,79.20
2018-06-09T00:49:50.659Z,77.60
2018-06-09T00:50:50.661Z,78.00
2018-06-09T00:51:50.657Z,76.40
2018-06-09T00:52:50.657Z,78.70
2018-06-09T00:53:50.661Z,78.80
2018-06-09T00:54:50.664Z,78.90
2018-06-09T00:55:50.665Z,79.50
2018-06-09T00:56:50.665Z,81.00
2018-06-09T00:57:50.661Z,81.40
2018-06-09T00:58:50.660Z,82.80
2018-06-09T00:59:50.661Z,81.70
2018-06-09T01:00:50.661Z,82.80
2018-06-09T01:01:50.667Z,80.70
2018-06-09T01:02:50.668Z,81.70
2018-06-09T01:03:50.667Z,83.30
2018-06-09T01:04:50.666Z,83.80
2018-06-09T01:05:50.663Z,82.30
2018-06-09T01:06:50.667Z,83.00
2018-06-09T01:07:50.669Z,84.00
2018-06-09T01:08:50.669Z,83.70
2018-06-09T01:09:50.666Z,82.80
2018-06-09T01:10:50.664Z,84.10
2018-06-09T01:11:50.670Z,82.90
2018-06-09T01:12:50.664Z,83.80
2018-06-09T01:13:50.670Z,83.30
2018-06-09T01:14:50.670Z,82.10
2018-06-09T01:15:50.670Z,83.90
2018-06-09T01:16:50.671Z,81.80
2018-06-09T01:17:50.664Z,82.10
2018-06-09T01:18:50.664Z,82.50
2018-06-09T01:19:50.666Z,80.90
2018-06-09T01:20:50.667Z,82.00
2018-06-09T01:21:50.669Z,80.70
2018-06-09T01:22:50.669Z,79.70
2018-06-09T01:23:50.665Z,79.10
2018-06-09T01:24:50.665Z,76.70
2018-06-09T01:25:50.669Z,74.60
2018-06-09T01:26:50.669Z,75.40
2018-06-09T01:27:50.669Z,74.90
2018-06-09T01:28:50.670Z,74.70
2018-06-09T01:29:50.664Z,70.90
2018-06-09T01:30:50.665Z,73.50
2018-06-09T01:31:50.667Z,74.60
2018-06-09T01:32:50.665Z,75.10
2018-06-09T01:33:50.674Z,74.10
2018-06-09T01:34:50.671Z,73.40
2018-06-09T01:35:50.670Z,72.20
2018-06-09T01:36:50.673Z,73.70
2018-06-09T01:37:50.664Z,74.00
2018-06-09T01:38:50.664Z,73.40
2018-06-09T01:39:50.669Z,71.70
2018-06-09T01:40:50.668Z,70.40
2018-06-09T01:41:50.662Z,69.10
2018-06-09T01:42:50.662Z,70.70
2018-06-09T01:43:50.662Z,73.00
2018-06-09T01:44:50.663Z,73.50
2018-06-09T01:45:50.666Z,70.50
2018-06-09T01:46:50.666Z,70.00
2018-06-09T01:47:50.666Z,71.30
2018-06-09T01:48:50.665Z,69.80
2018-06-09T01:49:50.661Z,70.80
2018-06-09T01:50:50.661Z,70.30
2018-06-09T01:51:50.661Z,68.40
2018-06-09T01:52:50.660Z,69.20
2018-06-09T01:53:50.666Z,68.30
2018-06-09T01:54:50.666Z,68.00
2018-06-09T01:55:50.661Z,66.50
2018-06-09T01:56:50.661Z,70.10
2018-06-09T01:57:50.665Z,68.80
2018-06-09T01:58:50.666Z,68.90
2018-06-09T01:59:50.665Z,66.40
2018-06-09T02:00:50.664Z,69.40
2018-06-09T02:01:50.659Z,70.20
2018-06-09T02:02:50.659Z,67.20
2018-06-09T02:03:50.664Z,68.80
2018-06-09T02:04:50.662Z,67.10
2018-06-09T02:05:50.664Z,66.90
2018-06-09T02:06:50.664Z,67.40
2018-06-09T02:07:50.665Z,69.00
2018-06-09T02:08:50.664Z,68.60
2018-06-09T02:09:50.659Z,69.60
2018-06-09T02:10:50.659Z,70.10
2018-06-09T02:11:50.666Z,70.60
2018-06-09T02:12:50.663Z,69.70
2018-06-09T02:13:50.658Z,71.00
2018-06-09T02:14:50.659Z,69.90
2018-06-09T02:15:50.658Z,72.90
2018-06-09T02:16:50.657Z,73.90
2018-06-09T02:17:50.662Z,72.30
2018-06-09T02:18:50.662Z,74.30
2018-06-09T02:19:50.662Z,73.90
2018-06-09T02:20:50.661Z,72.40
2018-06-09T02:21:50.661Z,74.90
2018-06-09T02:22:50.662Z,76.00
2018-06-09T02:23:50.657Z,75.80
2018-06-09T02:24:50.656Z,74.90
2018-06-09T02:25:50.664Z,77.10
2018-06-09T02:26:50.661Z,77.70
2018-06-09T02:27:50.657Z,78.50
2018-06-09T02:28:50.656Z,80.60
2018-06-09T02:29:50.659Z,79.50
2018-06-09T02:30:50.665Z,79.50
2018-06-09T02:31:50.663Z,79.30
2018-06-09T02:32:50.658Z,82.90
2018-06-09T02:33:50.654Z,81.10
2018-06-09T02:34:50.660Z,83.30
2018-06-09T02:35:50.654Z,82.40
2018-06-09T02:36:50.653Z,81.00
2018-06-09T02:37:50.660Z,80.70
2018-06-09T02:38:50.657Z,80.90
2018-06-09T02:39:50.657Z,83.30
2018-06-09T02:40:50.655Z,84.80
2018-06-09T02:41:50.650Z,86.00
2018-06-09T02:42:50.650Z,83.10
2018-06-09T02:43:50.655Z,82.40
2018-06-09T02:44:50.654Z,84.80
2018-06-09T02:45:50.649Z,83.20
2018-06-09T02:46:50.649Z,82.60
2018-06-09T02:47:50.651Z,81.40
2018-06-09T02:48:50.651Z,80.50
2018-06-09T02:49:50.653Z,81.90
2018-06-09T02:50:50.653Z,78.10
2018-06-09T02:51:50.656Z,79.30
2018-06-09T02:52:50.651Z,80.10
2018-06-09T02:53:50.645Z,82.50
2018-06-09T02:54:50.650Z,80.80
2018-06-09T02:55:50.645Z,80.60
2018-06-09T02:56:50.644Z,81.30
2018-06-09T02:57:50.648Z,80.50
2018-06-09T02:58:50.647Z,79.40
2018-06-09T02:59:50.644Z,78.10
2018-06-09T03:00:50.641Z,77.90
2018-06-09T03:01:50.649Z,79.10
2018-06-09T03:02:50.645Z,79.40
2018-06-09T03:03:50.647Z,76.40
2018-06-09T03:04:50.644Z,77.30
2018-06-09T03:05:50.640Z,76.90
2018-06-09T03:06:50.639Z,78.20
2018-06-09T03:07:50.639Z,80.60
2018-06-09T03:08:50.639Z,81.50
2018-06-09T03:09:50.643Z,82.40
2018-06-09T03:10:50.641Z,81.60
2018-06-09T03:11:50.640Z,83.60
2018-06-09T03:12:50.639Z,86.90
2018-06-09T03:13:50.634Z,87.10
2018-06-09T03:14:50.634Z,85.30
2018-06-09T03:15:50.638Z,84.90
2018-06-09T03:16:50.636Z,82.80
2018-06-09T03:17:50.631Z,80.50
2018-06-09T03:18:50.631Z,81.30
2018-06-09T03:19:50.631Z,77.50
2018-06-09T03:20:50.629Z,76.90
2018-06-09T03:21:50.634Z,76.40
2018-06-09T03:22:50.634Z,78.20
2018-06-09T03:23:50.633Z,76.30
2018-06-09T03:24:50.631Z,77.70
2018-06-09T03:25:50.628Z,76.30
2018-06-09T03:26:50.626Z,77.20
2018-06-09T03:27:50.624Z,76.20
2018-06-09T03:28:50.623Z,75.40
2018-06-09T03:29:50.627Z,74.00
2018-06-09T03:30:50.627Z,75.40
2018-06-09T03:31:50.622Z,76.40
2018-06-09T03:32:50.621Z,78.30
2018-06-09T03:33:50.624Z,79.00
2018-06-09T03:34:50.625Z,79.10
2018-06-09T03:35:50.625Z,79.30
2018-06-09T03:36:50.623Z,78.20
2018-06-09T03:37:50.617Z,78.70
2018-06-09T03:38:50.618Z,77.20
2018-06-09T03:39:50.621Z,79.30
2018-06-09T03:40:50.625Z,76.30
2018-06-09T03:41:50.616Z,74.80
2018-06-09T03:42:50.613Z,74.50
2018-06-09T03:43:50.612Z,74.40
2018-06-09T03:44:50.612Z,75.20
2018-06-09T03:45:50.615Z,75.60
2018-06-09T03:46:50.616Z,78.00
2018-06-09T03:47:50.609Z,76.10
2018-06-09T03:48:50.642Z,78.30
2018-06-09T03:49:50.611Z,78.60
2018-06-09T03:50:50.611Z,79.40
2018-06-09T03:51:50.612Z,80.20
2018-06-09T03:52:50.612Z,82.20
2018-06-09T03:53:50.604Z,81.70
2018-06-09T03:54:50.604Z,78.80
2018-06-09T03:55:50.603Z,78.10
2018-06-09T03:56:50.602Z,78.50
2018-06-09T03:57:50.606Z,79.00
2018-06-09T03:58:50.606Z,78.10
2018-06-09T03:59:50.604Z,77.10
2018-06-09T04:00:50.603Z,73.00
2018-06-09T04:01:50.598Z,70.60
2018-06-09T04:02:50.597Z,67.70
2018-06-09T04:03:50.601Z,67.50
2018-06-09T04:04:50.599Z,65.90
2018-06-09T04:05:50.594Z,65.60
2018-06-09T04:06:50.595Z,66.30
2018-06-09T04:07:50.595Z,66.10
2018-06-09T04:08:50.627Z,64.30
2018-06-09T04:09:50.597Z,64.70
2018-06-09T04:10:50.600Z,66.70
2018-06-09T04:11:50.596Z,65.80
2018-06-09T04:12:50.596Z,65.00
2018-06-09T04:13:50.589Z,67.10
2018-06-09T04:14:50.590Z,68.60
2018-06-09T04:15:50.590Z,66.50
2018-06-09T04:16:50.587Z,67.30
2018-06-09T04:17:50.591Z,67.30
2018-06-09T04:18:50.595Z,67.90
2018-06-09T04:19:50.587Z,66.60
2018-06-09T04:20:50.589Z,66.50
2018-06-09T04:21:50.594Z,66.60
2018-06-09T04:22:50.590Z,67.60
2018-06-09T04:23:50.589Z,66.30
2018-06-09T04:24:50.591Z,64.70
2018-06-09T04:25:50.584Z,67.10
2018-06-09T04:26:50.583Z,63.00
2018-06-09T04:27:50.583Z,61.20
2018-06-09T04:28:50.582Z,60.00
2018-06-09T04:29:50.587Z,59.80
2018-06-09T04:30:50.587Z,60.00
2018-06-09T04:31:50.586Z,58.20
2018-06-09T04:32:50.591Z,57.30
2018-06-09T04:33:50.587Z,57.80
2018-06-09T04:34:50.580Z,59.60
2018-06-09T04:35:50.586Z,58.70
2018-06-09T04:36:50.585Z,56.60
2018-06-09T04:37:50.581Z,57.70
2018-06-09T04:38:50.582Z,55.10
2018-06-09T04:39:50.620Z,56.70
2018-06-09T04:40:50.582Z,56.30
2018-06-09T04:41:50.588Z,54.90
2018-06-09T04:42:50.588Z,53.60
2018-06-09T04:43:50.586Z,53.30
2018-06-09T04:44:50.586Z,52.80
2018-06-09T04:45:50.582Z,52.10
2018-06-09T04:46:50.583Z,51.90
2018-06-09T04:47:50.583Z,53.10
2018-06-09T04:48:50.583Z,48.40
2018-06-09T04:49:50.589Z,51.20
2018-06-09T04:50:50.592Z,51.50
2018-06-09T04:51:50.587Z,50.10
2018-06-09T04:52:50.585Z,50.50
2018-06-09T04:53:50.590Z,50.60
2018-06-09T04:54:50.590Z,49.50
2018-06-09T04:55:50.590Z,52.40
2018-06-09T04:56:50.592Z,49.70
2018-06-09T04:57:50.587Z,50.00
2018-06-09T04:58:50.588Z,49.80
2018-06-09T04:59:50.588Z,50.00
2018-06-09T05:00:50.592Z,46.70
2018-06-09T05:01:50.596Z,48.60
2018-06-09T05:02:50.594Z,47.50
2018-06-09T05:03:50.595Z,47.40
2018-06-09T05:04:50.596Z,47.00
2018-06-09T05:05:50.592Z,47.20
2018-06-09T05:06:50.594Z,47.00
2018-06-09T05:07:50.600Z,46.50
2018-06-09T05:08:50.599Z,45.30
2018-06-09T05:09:50.594Z,44.50
2018-06-09T05:10:50.595Z,43.70
2018-06-09T05:11:50.596Z,44.00
2018-06-09T05:12:50.596Z,42.70
2018-06-09T05:13:50.602Z,41.90
2018-06-09T05:14:50.603Z,42.10
2018-06-09T05:15:50.605Z,39.20
2018-06-09T05:16:50.606Z,38.70
2018-06-09T05:17:50.604Z,37.50
2018-06-09T05:18:50.605Z,36.90
2018-06-09T05:19:50.607Z,38.40
2018-06-09T05:20:50.608Z,37.50
2018-06-09T05:21:50.615Z,38.30
2018-06-09T05:22:50.618Z,37.90
2018-06-09T05:23:50.617Z,36.00
2018-06-09T05:24:50.618Z,38.20
2018-06-09T05:25:50.624Z,35.80
2018-06-09T05:26:50.626Z,35.50
2018-06-09T05:27:50.631Z,36.00
2018-06-09T05:28:50.630Z,35.80
2018-06-09T05:29:50.629Z,35.70
2018-06-09T05:30:50.631Z,35.70
2018-06-09T05:31:50.638Z,35.70
2018-06-09T05:32:50.637Z,36.70
2018-06-09T05:33:50.645Z,35.60
2018-06-09T05:34:50.648Z,35.70
2018-06-09T05:35:50.652Z,34.10
2018-06-09T05:36:50.656Z,35.20
2018-06-09T05:37:50.654Z,35.50
2018-06-09T05:38:50.664Z,34.30
2018-06-09T05:39:50.666Z,35.40
2018-06-09T05:40:50.669Z,33.70
2018-06-09T05:41:50.668Z,34.30
2018-06-09T05:42:50.674Z,34.20
2018-06-09T05:43:50.676Z,32.30
2018-06-09T05:44:50.678Z,32.60
2018-06-09T05:45:50.687Z,33.40
2018-06-09T05:46:50.691Z,32.70
2018-06-09T05:47:50.696Z,33.40
2018-06-09T05:48:50.700Z,32.40
2018-06-09T05:49:50.698Z,33.40
2018-06-09T05:50:50.703Z,32.70
2018-06-09T05:51:50.708Z,32.60
2018-06-09T05:52:50.710Z,32.30
2018-06-09T05:53:50.719Z,34.60
2018-06-09T05:54:50.723Z,35.40
2018-06-09T05:55:50.725Z,56.90
2018-06-09T05:56:50.727Z,39.10
2018-06-09T05:57:50.735Z,39.20
2018-06-09T05:58:50.739Z,37.20
2018-06-09T05:59:50.744Z,33.10
2018-06-09T06:00:50.747Z,33.80
2018-06-09T06:01:50.748Z,34.10
2018-06-09T06:02:50.751Z,33.10
2018-06-09T06:03:50.755Z,433.40
2018-06-09T06:04:50.758Z,999.90
2018-06-09T06:05:50.771Z,999.90
2018-06-09T06:06:50.772Z,999.90
2018-06-09T06:07:50.775Z,999.90
2018-06-09T06:08:50.780Z,999.90
2018-06-09T06:09:50.779Z,999.90
2018-06-09T06:10:50.783Z,999.90
2018-06-09T06:11:50.792Z,999.90
2018-06-09T06:12:50.795Z,999.90
2018-06-09T06:13:50.796Z,999.90
2018-06-09T06:14:50.800Z,999.90
2018-06-09T06:15:50.805Z,999.90
2018-06-09T06:16:50.811Z,38.30
2018-06-09T06:17:50.821Z,999.90
2018-06-09T06:18:50.840Z,62.20
2018-06-09T06:19:50.831Z,27.30
2018-06-09T06:20:50.837Z,25.00
2018-06-09T06:21:50.836Z,23.60
2018-06-09T06:22:50.842Z,23.90
2018-06-09T06:23:50.848Z,22.80
2018-06-09T06:24:50.853Z,23.70
2018-06-09T06:25:50.863Z,23.60
2018-06-09T06:26:50.871Z,22.70
2018-06-09T06:27:50.874Z,25.20
2018-06-09T06:28:50.877Z,24.60
2018-06-09T06:29:50.887Z,24.40
2018-06-09T06:30:50.894Z,24.80
2018-06-09T06:31:50.905Z,24.10
2018-06-09T06:32:50.906Z,25.90
2018-06-09T06:33:50.908Z,25.60
2018-06-09T06:34:50.915Z,25.30
2018-06-09T06:35:50.921Z,25.90
2018-06-09T06:36:50.927Z,24.30
2018-06-09T06:37:50.939Z,25.20
2018-06-09T06:38:50.945Z,24.60
2018-06-09T06:39:50.950Z,25.20
2018-06-09T06:40:50.956Z,24.80
2018-06-09T06:41:50.958Z,24.90
2018-06-09T06:42:50.964Z,24.40
2018-06-09T06:43:50.975Z,24.80
2018-06-09T06:44:50.981Z,25.20
2018-06-09T06:45:50.984Z,25.60
2018-06-09T06:46:50.989Z,24.50
2018-06-09T06:47:50.997Z,24.10
2018-06-09T06:48:51.002Z,23.30
2018-06-09T06:49:51.014Z,23.90
2018-06-09T06:50:51.021Z,23.60
2018-06-09T06:51:51.026Z,23.70
2018-06-09T06:52:51.032Z,22.60
2018-06-09T06:53:51.033Z,23.70
2018-06-09T06:54:51.042Z,24.20
2018-06-09T06:55:51.048Z,24.60
2018-06-09T06:56:51.053Z,24.80
2018-06-09T06:57:51.065Z,24.20
2018-06-09T06:58:51.072Z,25.00
2018-06-09T06:59:51.075Z,25.70
2018-06-09T07:00:51.080Z,24.90
2018-06-09T07:01:51.090Z,25.20
2018-06-09T07:02:51.097Z,25.10
2018-06-09T07:03:51.102Z,25.60
2018-06-09T07:04:51.107Z,25.40
2018-06-09T07:05:51.113Z,24.20
2018-06-09T07:06:51.116Z,24.90
2018-06-09T07:07:51.125Z,24.80
2018-06-09T07:08:51.129Z,24.50
2018-06-09T07:09:51.138Z,24.10
2018-06-09T07:10:51.146Z,24.80
2018-06-09T07:11:51.151Z,24.40
2018-06-09T07:12:51.156Z,24.10
2018-06-09T07:13:51.158Z,23.40
2018-06-09T07:14:51.165Z,24.00
2018-06-09T07:15:51.175Z,23.80
2018-06-09T07:16:51.181Z,23.00
2018-06-09T07:17:51.182Z,21.40
2018-06-09T07:18:51.191Z,20.70
2018-06-09T07:19:51.196Z,21.10
2018-06-09T07:20:51.202Z,19.80
2018-06-09T07:21:51.214Z,19.70
2018-06-09T07:22:51.221Z,18.80
2018-06-09T07:23:51.232Z,19.30
2018-06-09T07:24:51.235Z,18.20
2018-06-09T07:25:51.239Z,18.10
2018-06-09T07:26:51.247Z,17.30
2018-06-09T07:27:51.255Z,16.80
2018-06-09T07:28:51.263Z,18.00
2018-06-09T07:29:51.276Z,17.30
2018-06-09T07:30:51.289Z,18.30
2018-06-09T07:31:51.289Z,17.00
2018-06-09T07:32:51.298Z,17.70
2018-06-09T07:33:51.311Z,17.80
2018-06-09T07:34:51.320Z,18.20
2018-06-09T07:35:51.331Z,17.90
2018-06-09T07:36:51.335Z,18.10
2018-06-09T07:37:51.340Z,17.50
2018-06-09T07:38:51.350Z,18.80
2018-06-09T07:39:51.361Z,18.70
2018-06-09T07:40:51.366Z,19.50
2018-06-09T07:41:51.379Z,18.40
2018-06-09T07:42:51.388Z,19.50
2018-06-09T07:43:51.397Z,19.60
2018-06-09T07:44:51.404Z,19.60
2018-06-09T07:45:51.409Z,19.40
2018-06-09T07:46:51.419Z,20.30
2018-06-09T07:47:51.446Z,20.30
2018-06-09T07:48:51.439Z,20.70
2018-06-09T07:49:51.442Z,20.60
2018-06-09T07:50:51.450Z,19.80
2018-06-09T07:51:51.458Z,20.30
2018-06-09T07:52:51.466Z,20.40
2018-06-09T07:53:51.479Z,21.00
2018-06-09T07:54:51.487Z,20.00
2018-06-09T07:55:51.496Z,21.80
2018-06-09T07:56:51.503Z,20.50
2018-06-09T07:57:51.507Z,19.50
2018-06-09T07:58:51.520Z,20.00
2018-06-09T07:59:51.528Z,20.30
2018-06-09T08:00:51.533Z,20.30
2018-06-09T08:01:51.544Z,19.50
2018-06-09T08:02:51.552Z,18.90
2018-06-09T08:03:51.556Z,19.10
2018-06-09T08:04:51.563Z,19.50
2018-06-09T08:05:51.576Z,19.50
2018-06-09T08:06:51.595Z,19.80
2018-06-09T08:07:51.592Z,20.00
2018-06-09T08:08:51.599Z,20.40
2018-06-09T08:09:51.606Z,20.10
2018-06-09T08:10:51.611Z,21.60
2018-06-09T08:11:51.620Z,20.60
2018-06-09T08:12:51.626Z,20.30
2018-06-09T08:13:51.640Z,20.50
2018-06-09T08:14:51.647Z,21.30
2018-06-09T08:15:51.655Z,22.20
2018-06-09T08:16:51.666Z,21.50
2018-06-09T08:17:51.665Z,21.30
2018-06-09T08:18:51.674Z,21.40
2018-06-09T08:19:51.689Z,22.20
2018-06-09T08:20:51.694Z,22.20
2018-06-09T08:21:51.698Z,23.00
2018-06-09T08:22:51.704Z,24.20
2018-06-09T08:23:51.712Z,22.90
2018-06-09T08:24:51.719Z,23.10
2018-06-09T08:25:51.731Z,23.40
2018-06-09T08:26:51.738Z,23.20
2018-06-09T08:27:51.746Z,23.60
2018-06-09T08:28:51.755Z,24.00
2018-06-09T08:29:51.757Z,23.50
2018-06-09T08:30:51.764Z,23.10
2018-06-09T08:31:51.773Z,22.40
2018-06-09T08:32:51.779Z,22.50
2018-06-09T08:33:51.791Z,23.00
2018-06-09T08:34:51.800Z,22.40
2018-06-09T08:35:51.803Z,21.90
2018-06-09T08:36:51.810Z,22.70
2018-06-09T08:37:51.821Z,22.80
2018-06-09T08:38:51.831Z,23.00
2018-06-09T08:39:51.839Z,21.70
2018-06-09T08:40:51.844Z,22.40
2018-06-09T08:41:51.848Z,21.30
2018-06-09T08:42:51.856Z,22.30
2018-06-09T08:43:51.866Z,22.20
2018-06-09T08:44:51.875Z,22.10
2018-06-09T08:45:51.884Z,21.90
2018-06-09T08:46:51.894Z,22.50
2018-06-09T08:47:51.901Z,23.30
2018-06-09T08:48:51.909Z,23.20
2018-06-09T08:49:51.916Z,22.70
2018-06-09T08:50:51.929Z,23.10
2018-06-09T08:51:51.933Z,23.80
2018-06-09T08:52:51.941Z,22.90
2018-06-09T08:53:51.945Z,23.20
2018-06-09T08:54:51.953Z,23.80
2018-06-09T08:55:51.961Z,22.00
2018-06-09T08:56:52.033Z,22.60
2018-06-09T08:57:51.983Z,22.60
2018-06-09T08:58:51.993Z,22.00
2018-06-09T08:59:51.999Z,22.10
2018-06-09T09:00:52.006Z,22.20
2018-06-09T09:01:52.009Z,23.20
2018-06-09T09:02:52.016Z,21.90
2018-06-09T09:03:52.025Z,22.30
2018-06-09T09:04:52.033Z,20.80
2018-06-09T09:05:52.044Z,21.80
2018-06-09T09:06:52.055Z,20.60
2018-06-09T09:07:52.056Z,20.10
2018-06-09T09:08:52.064Z,19.80
2018-06-09T09:09:52.077Z,19.50
2018-06-09T09:10:52.089Z,19.70
2018-06-09T09:11:52.146Z,19.20
2018-06-09T09:12:52.103Z,19.60
2018-06-09T09:13:52.107Z,19.30
2018-06-09T09:14:52.115Z,18.90
2018-06-09T09:15:52.125Z,16.70
2018-06-09T09:16:52.138Z,15.80
2018-06-09T09:17:52.149Z,15.70
2018-06-09T09:18:52.159Z,16.70
2018-06-09T09:19:52.168Z,16.80
2018-06-09T09:20:52.177Z,16.70
2018-06-09T09:21:52.183Z,18.50
2018-06-09T09:22:52.193Z,16.90
2018-06-09T09:23:52.208Z,15.20
2018-06-09T09:24:52.220Z,14.60
2018-06-09T09:25:52.279Z,14.30
2018-06-09T09:26:52.238Z,13.80
2018-06-09T09:27:52.251Z,13.30
2018-06-09T09:28:52.266Z,13.50
2018-06-09T09:29:52.281Z,13.80
2018-06-09T09:30:52.293Z,14.30
2018-06-09T09:31:52.307Z,14.10
2018-06-09T09:32:52.318Z,14.00
2018-06-09T09:33:52.328Z,14.30
2018-06-09T09:34:52.341Z,14.90
2018-06-09T09:35:52.354Z,15.90
2018-06-09T09:36:52.367Z,17.40
2018-06-09T09:37:52.384Z,16.10
2018-06-09T09:38:52.398Z,16.10
2018-06-09T09:39:52.407Z,16.40
2018-06-09T09:40:52.419Z,16.60
2018-06-09T09:41:52.436Z,15.70
2018-06-09T09:42:52.451Z,14.80
2018-06-09T09:43:52.472Z,15.10
2018-06-09T09:44:52.477Z,15.50
2018-06-09T09:45:52.486Z,13.20
2018-06-09T09:46:52.499Z,13.70
2018-06-09T09:47:52.513Z,13.00
2018-06-09T09:48:52.524Z,13.20
2018-06-09T09:49:52.543Z,12.70
2018-06-09T09:50:52.556Z,12.80
2018-06-09T09:51:52.570Z,12.20
2018-06-09T09:52:52.583Z,12.70
2018-06-09T09:53:52.593Z,11.90
2018-06-09T09:54:52.633Z,11.70
2018-06-09T09:55:52.626Z,12.00
2018-06-09T09:56:52.642Z,11.90
2018-06-09T09:57:52.651Z,11.20
2018-06-09T09:58:52.666Z,11.60
2018-06-09T09:59:52.686Z,11.30
2018-06-09T10:00:52.696Z,10.90
2018-06-09T10:01:52.724Z,10.70
2018-06-09T10:02:52.732Z,11.30
2018-06-09T10:03:52.748Z,11.40
2018-06-09T10:04:52.763Z,11.80
2018-06-09T10:05:52.774Z,11.20
2018-06-09T10:06:52.792Z,11.80
2018-06-09T10:07:52.807Z,11.50
2018-06-09T10:08:52.821Z,10.60
2018-06-09T10:09:52.842Z,11.00
2018-06-09T10:10:52.859Z,11.60
2018-06-09T10:11:52.874Z,11.70
2018-06-09T10:12:52.893Z,11.40
2018-06-09T10:13:52.906Z,10.60
2018-06-09T10:14:52.923Z,11.40
2018-06-09T10:15:52.939Z,10.80
2018-06-09T10:16:52.955Z,11.00
2018-06-09T10:17:52.966Z,10.80
2018-06-09T10:18:52.983Z,10.50
2018-06-09T10:19:53.001Z,10.80
2018-06-09T10:20:53.016Z,11.60
2018-06-09T10:21:53.041Z,11.10
2018-06-09T10:22:53.059Z,11.00
2018-06-09T10:23:53.072Z,11.10
2018-06-09T10:24:53.089Z,11.00
2018-06-09T10:25:53.100Z,11.20
2018-06-09T10:26:53.117Z,11.80
2018-06-09T10:27:53.138Z,11.80
2018-06-09T10:28:53.155Z,11.80
2018-06-09T10:29:53.167Z,11.30
2018-06-09T10:30:53.184Z,11.30
2018-06-09T10:31:53.201Z,11.50
2018-06-09T10:32:53.269Z,11.10
2018-06-09T10:33:53.239Z,11.70
2018-06-09T10:34:53.257Z,11.40
2018-06-09T10:35:53.274Z,11.10
2018-06-09T10:36:53.289Z,10.80
2018-06-09T10:37:53.303Z,11.30
2018-06-09T10:38:53.322Z,12.80
2018-06-09T10:39:53.337Z,12.00
2018-06-09T10:40:53.353Z,12.40
2018-06-09T10:41:53.375Z,11.80
2018-06-09T10:42:53.401Z,11.30
2018-06-09T10:43:53.405Z,11.00
2018-06-09T10:44:53.425Z,11.30
2018-06-09T10:45:53.449Z,11.00
2018-06-09T10:46:53.462Z,10.90
2018-06-09T10:47:53.479Z,11.30
2018-06-09T10:48:53.497Z,11.30
2018-06-09T10:49:53.510Z,10.90
2018-06-09T10:50:53.530Z,11.20
2018-06-09T10:51:53.543Z,11.30
2018-06-09T10:52:53.566Z,12.10
2018-06-09T10:53:53.585Z,11.90
2018-06-09T10:54:53.603Z,11.90
2018-06-09T10:55:53.623Z,11.60
2018-06-09T10:56:53.637Z,11.30
2018-06-09T10:57:53.650Z,11.50
2018-06-09T10:58:53.668Z,11.80
2018-06-09T10:59:53.691Z,11.20
2018-06-09T11:00:53.708Z,11.10
2018-06-09T11:01:53.722Z,11.30
2018-06-09T11:02:53.740Z,11.50
2018-06-09T11:03:53.758Z,11.70
2018-06-09T11:04:53.775Z,11.00
2018-06-09T11:05:53.797Z,11.80
2018-06-09T11:06:53.818Z,12.20
2018-06-09T11:07:53.834Z,11.80
2018-06-09T11:08:53.852Z,12.10
2018-06-09T11:09:53.869Z,11.50
2018-06-09T11:10:53.885Z,11.90
2018-06-09T11:11:53.903Z,12.00
2018-06-09T11:12:53.920Z,12.10
2018-06-09T11:13:53.943Z,12.10
2018-06-09T11:14:53.962Z,12.00
2018-06-09T11:15:53.976Z,12.10
2018-06-09T11:16:53.999Z,12.30
2018-06-09T11:17:54.017Z,12.30
2018-06-09T11:18:54.035Z,11.40
2018-06-09T11:19:54.052Z,12.00
2018-06-09T11:20:54.070Z,13.90
2018-06-09T11:21:54.083Z,13.50
2018-06-09T11:22:54.099Z,11.80
2018-06-09T11:23:54.116Z,14.20
2018-06-09T11:24:54.132Z,14.50
2018-06-09T11:25:54.155Z,13.50
2018-06-09T11:26:54.170Z,15.30
2018-06-09T11:27:54.185Z,15.10
2018-06-09T11:28:54.200Z,15.30
2018-06-09T11:29:54.211Z,15.70
2018-06-09T11:30:54.226Z,15.70
2018-06-09T11:31:54.245Z,17.50
2018-06-09T11:32:54.259Z,17.20
2018-06-09T11:33:54.269Z,15.40
2018-06-09T11:34:54.283Z,16.30
2018-06-09T11:35:54.298Z,17.20
2018-06-09T11:36:54.310Z,17.30
2018-06-09T11:37:54.329Z,17.40
2018-06-09T11:38:54.342Z,18.70
2018-06-09T11:39:54.355Z,19.20
2018-06-09T11:40:54.368Z,18.90
2018-06-09T11:41:54.374Z,18.30
2018-06-09T11:42:54.390Z,19.80
2018-06-09T11:43:54.399Z,20.30
2018-06-09T11:44:54.410Z,20.40
2018-06-09T11:45:54.425Z,19.50
2018-06-09T11:46:54.441Z,21.90
2018-06-09T11:47:54.446Z,20.00
2018-06-09T11:48:54.456Z,19.20
2018-06-09T11:49:54.472Z,20.50
2018-06-09T11:50:54.483Z,21.10
2018-06-09T11:51:54.499Z,19.40
2018-06-09T11:52:54.505Z,21.80
2018-06-09T11:53:54.507Z,22.30
2018-06-09T11:54:54.517Z,21.10
2018-06-09T11:55:54.527Z,20.00
2018-06-09T11:56:54.536Z,21.20
2018-06-09T11:57:54.553Z,21.60
2018-06-09T11:58:54.561Z,21.90
2018-06-09T11:59:54.572Z,21.40
2018-06-09T12:00:54.579Z,20.90
2018-06-09T12:01:54.585Z,20.30
2018-06-09T12:02:54.594Z,21.40
2018-06-09T12:03:54.607Z,21.60
2018-06-09T12:04:54.615Z,20.90
2018-06-09T12:05:54.621Z,21.20
2018-06-09T12:06:54.629Z,20.20
2018-06-09T12:07:54.639Z,20.70
2018-06-09T12:08:54.646Z,20.10
2018-06-09T12:09:54.660Z,20.10
2018-06-09T12:10:54.670Z,20.90
2018-06-09T12:11:54.673Z,20.40
2018-06-09T12:12:54.681Z,20.30
2018-06-09T12:13:54.694Z,19.30
2018-06-09T12:14:54.703Z,20.10
2018-06-09T12:15:54.711Z,19.90
2018-06-09T12:16:54.720Z,20.40
2018-06-09T12:17:54.723Z,20.80
2018-06-09T12:18:54.732Z,19.60
2018-06-09T12:19:54.744Z,20.70
2018-06-09T12:20:54.753Z,20.90
2018-06-09T12:21:54.756Z,19.90
2018-06-09T12:22:54.764Z,20.50
2018-06-09T12:23:54.772Z,20.80
2018-06-09T12:24:54.846Z,20.10
2018-06-09T12:25:54.793Z,20.50
2018-06-09T12:26:54.801Z,19.40
2018-06-09T12:27:54.808Z,21.00
2018-06-09T12:28:54.816Z,20.40
2018-06-09T12:29:54.819Z,21.10
2018-06-09T12:30:54.827Z,21.50
2018-06-09T12:31:54.835Z,20.80
2018-06-09T12:32:54.842Z,21.20
2018-06-09T12:33:54.858Z,22.30
2018-06-09T12:34:54.870Z,21.70
2018-06-09T12:35:54.866Z,21.20
2018-06-09T12:36:54.873Z,20.40
2018-06-09T12:37:54.885Z,19.20
2018-06-09T12:38:54.894Z,20.20
2018-06-09T12:39:54.901Z,19.80
2018-06-09T12:40:54.907Z,19.10
2018-06-09T12:41:54.914Z,20.60
2018-06-09T12:42:54.919Z,20.00
2018-06-09T12:43:54.926Z,19.80
2018-06-09T12:44:54.933Z,20.40
2018-06-09T12:45:54.946Z,21.10
2018-06-09T12:46:54.954Z,21.60
2018-06-09T12:47:54.963Z,20.80
2018-06-09T12:48:54.969Z,22.00
2018-06-09T12:49:54.972Z,21.60
2018-06-09T12:50:54.978Z,21.90
2018-06-09T12:51:54.996Z,21.20
2018-06-09T12:52:55.007Z,20.80